sensor_id;sensor_type;location;lat;lon;timestamp;pressure;altitude;pressure_sealevel;temperature;humidity
62011;BME280;47967;51.756;10.174;2023-07-02T04:03:17;98805.16;;;18.13;78.64
62011;BME280;47967;51.756;10.174;2023-07-02T04:07:20;98816.28;;;17.90;79.37
62011;BME280;47967;51.756;10.174;2023-07-02T04:11:22;98834.03;;;17.83;79.93
62011;BME280;47967;51.756;10.174;2023-07-02T04:15:25;98832.97;;;18.15;79.55
62011;BME280;47967;51.756;10.174;2023-07-02T04:19:30;98831.34;;;18.45;78.46
62011;BME280;47967;51.756;10.174;2023-07-02T04:23:33;98822.81;;;18.56;77.47
62011;BME280;47967;51.756;10.174;2023-07-02T04:27:35;98827.41;;;18.82;76.78
62011;BME280;47967;51.756;10.174;2023-07-02T04:31:52;98834.25;;;18.95;76.50
62011;BME280;47967;51.756;10.174;2023-07-02T04:35:56;98833.94;;;19.07;75.75
62011;BME280;47967;51.756;10.174;2023-07-02T04:39:59;98838.31;;;19.02;75.33
62011;BME280;47967;51.756;10.174;2023-07-02T04:44:02;98836.94;;;19.05;75.34
62011;BME280;47967;51.756;10.174;2023-07-02T04:48:05;98840.47;;;19.11;75.18
62011;BME280;47967;51.756;10.174;2023-07-02T04:52:09;98840.97;;;19.23;74.54
62011;BME280;47967;51.756;10.174;2023-07-02T04:56:12;98845.91;;;19.26;74.19
62011;BME280;47967;51.756;10.174;2023-07-02T05:00:15;98837.94;;;19.25;74.81
62011;BME280;47967;51.756;10.174;2023-07-02T05:04:18;98838.44;;;19.37;74.57
62011;BME280;47967;51.756;10.174;2023-07-02T05:08:21;98844.13;;;19.51;73.85
62011;BME280;47967;51.756;10.174;2023-07-02T05:12:24;98837.31;;;19.48;73.93
62011;BME280;47967;51.756;10.174;2023-07-02T05:16:27;98844.72;;;19.43;73.87
62011;BME280;47967;51.756;10.174;2023-07-02T05:20:29;98843.97;;;19.27;74.04
62011;BME280;47967;51.756;10.174;2023-07-02T05:24:33;98840.44;;;19.21;75.03
62011;BME280;47967;51.756;10.174;2023-07-02T05:28:36;98847.03;;;19.20;75.26
62011;BME280;47967;51.756;10.174;2023-07-02T05:32:38;98842.03;;;19.27;75.02
62011;BME280;47967;51.756;10.174;2023-07-02T05:36:41;98840.44;;;19.21;74.68
62011;BME280;47967;51.756;10.174;2023-07-02T05:40:45;98836.03;;;19.30;74.75
62011;BME280;47967;51.756;10.174;2023-07-02T05:44:49;98847.03;;;19.20;74.29
62011;BME280;47967;51.756;10.174;2023-07-02T05:48:52;98857.81;;;19.51;72.76
62011;BME280;47967;51.756;10.174;2023-07-02T05:52:57;98854.69;;;19.68;71.27
62011;BME280;47967;51.756;10.174;2023-07-02T05:57:01;98857.47;;;19.58;70.66
62011;BME280;47967;51.756;10.174;2023-07-02T06:01:04;98859.34;;;19.67;71.16
62011;BME280;47967;51.756;10.174;2023-07-02T06:05:08;98866.66;;;19.77;70.70
62011;BME280;47967;51.756;10.174;2023-07-02T06:09:11;98872.69;;;19.79;69.25
62011;BME280;47967;51.756;10.174;2023-07-02T06:13:15;98870.72;;;19.90;69.46
62011;BME280;47967;51.756;10.174;2023-07-02T06:17:17;98874.53;;;19.94;68.70
62011;BME280;47967;51.756;10.174;2023-07-02T06:21:22;98873.63;;;20.04;68.08
62011;BME280;47967;51.756;10.174;2023-07-02T06:25:25;98874.88;;;20.22;67.38
62011;BME280;47967;51.756;10.174;2023-07-02T06:29:29;98881.16;;;20.57;66.78
62011;BME280;47967;51.756;10.174;2023-07-02T06:33:32;98888.66;;;20.46;67.08
62011;BME280;47967;51.756;10.174;2023-07-02T06:37:34;98889.91;;;20.30;67.63
62011;BME280;47967;51.756;10.174;2023-07-02T06:41:37;98892.19;;;20.12;68.49
62011;BME280;47967;51.756;10.174;2023-07-02T06:45:41;98884.47;;;19.80;69.31
62011;BME280;47967;51.756;10.174;2023-07-02T06:49:44;98914.06;;;19.67;69.09
62011;BME280;47967;51.756;10.174;2023-07-02T06:53:46;98924.44;;;19.76;69.38
62011;BME280;47967;51.756;10.174;2023-07-02T06:57:49;98927.13;;;19.91;68.04
62011;BME280;47967;51.756;10.174;2023-07-02T07:01:53;98942.63;;;20.06;67.41
62011;BME280;47967;51.756;10.174;2023-07-02T07:05:56;98939.25;;;20.20;64.52
62011;BME280;47967;51.756;10.174;2023-07-02T07:09:58;98950.69;;;20.67;63.13
62011;BME280;47967;51.756;10.174;2023-07-02T07:14:01;98953.84;;;20.50;63.93
62011;BME280;47967;51.756;10.174;2023-07-02T07:18:05;98958.25;;;20.45;64.47
62011;BME280;47967;51.756;10.174;2023-07-02T07:22:08;98951.66;;;20.86;59.28
62011;BME280;47967;51.756;10.174;2023-07-02T07:26:10;98971.94;;;20.85;59.51
62011;BME280;47967;51.756;10.174;2023-07-02T07:30:13;98966.94;;;21.22;60.30
62011;BME280;47967;51.756;10.174;2023-07-02T07:34:17;98963.53;;;21.54;58.23
62011;BME280;47967;51.756;10.174;2023-07-02T07:38:20;98963.84;;;21.77;57.81
62011;BME280;47967;51.756;10.174;2023-07-02T07:42:23;98959.91;;;22.21;58.79
62011;BME280;47967;51.756;10.174;2023-07-02T07:46:25;98959.78;;;22.32;57.39
62011;BME280;47967;51.756;10.174;2023-07-02T07:50:29;98954.06;;;22.28;56.97
62011;BME280;47967;51.756;10.174;2023-07-02T07:54:32;98956.59;;;22.05;55.68
62011;BME280;47967;51.756;10.174;2023-07-02T07:58:36;98966.00;;;21.99;58.42
62011;BME280;47967;51.756;10.174;2023-07-02T08:02:39;98951.47;;;22.18;57.45
62011;BME280;47967;51.756;10.174;2023-07-02T08:06:43;98960.53;;;21.99;57.80
62011;BME280;47967;51.756;10.174;2023-07-02T08:10:46;98962.19;;;23.05;55.78
62011;BME280;47967;51.756;10.174;2023-07-02T08:14:50;98971.09;;;22.82;54.56
62011;BME280;47967;51.756;10.174;2023-07-02T08:18:53;98981.16;;;22.73;55.10
62011;BME280;47967;51.756;10.174;2023-07-02T08:22:57;98970.97;;;22.74;53.72
62011;BME280;47967;51.756;10.174;2023-07-02T08:26:59;98978.41;;;22.73;54.23
62011;BME280;47967;51.756;10.174;2023-07-02T08:31:03;98972.44;;;23.18;51.85
62011;BME280;47967;51.756;10.174;2023-07-02T08:35:07;98995.06;;;22.25;53.36
62011;BME280;47967;51.756;10.174;2023-07-02T08:39:11;98996.78;;;22.20;52.38
62011;BME280;47967;51.756;10.174;2023-07-02T08:43:13;99000.13;;;21.74;53.68
62011;BME280;47967;51.756;10.174;2023-07-02T08:47:16;99003.66;;;21.99;54.21
62011;BME280;47967;51.756;10.174;2023-07-02T08:51:19;99006.81;;;22.30;51.93
62011;BME280;47967;51.756;10.174;2023-07-02T08:55:23;99006.69;;;22.60;53.19
62011;BME280;47967;51.756;10.174;2023-07-02T08:59:26;99016.84;;;22.92;51.91
62011;BME280;47967;51.756;10.174;2023-07-02T09:03:29;99004.31;;;21.90;51.20
62011;BME280;47967;51.756;10.174;2023-07-02T09:07:32;99020.72;;;22.39;49.63
62011;BME280;47967;51.756;10.174;2023-07-02T09:11:50;99028.59;;;22.46;48.63
62011;BME280;47967;51.756;10.174;2023-07-02T09:15:53;99031.69;;;22.77;47.14
62011;BME280;47967;51.756;10.174;2023-07-02T09:19:57;99018.47;;;22.60;46.85
62011;BME280;47967;51.756;10.174;2023-07-02T09:24:11;99024.84;;;22.75;48.16
62011;BME280;47967;51.756;10.174;2023-07-02T09:28:17;99019.97;;;23.52;47.79
62011;BME280;47967;51.756;10.174;2023-07-02T09:32:26;99024.97;;;23.49;45.77
62011;BME280;47967;51.756;10.174;2023-07-02T09:36:29;99017.59;;;23.31;45.99
62011;BME280;47967;51.756;10.174;2023-07-02T09:40:31;99032.25;;;22.93;47.88
62011;BME280;47967;51.756;10.174;2023-07-02T09:44:36;99023.75;;;22.76;47.55
62011;BME280;47967;51.756;10.174;2023-07-02T09:48:38;99028.00;;;22.68;47.92
62011;BME280;47967;51.756;10.174;2023-07-02T09:52:41;99031.88;;;22.67;47.82
62011;BME280;47967;51.756;10.174;2023-07-02T09:56:45;99043.97;;;21.55;48.24
62011;BME280;47967;51.756;10.174;2023-07-02T10:00:50;99051.16;;;21.51;49.42
62011;BME280;47967;51.756;10.174;2023-07-02T10:04:53;99044.81;;;21.50;48.76
62011;BME280;47967;51.756;10.174;2023-07-02T10:08:56;99057.50;;;21.75;49.40
62011;BME280;47967;51.756;10.174;2023-07-02T10:12:59;99053.56;;;22.25;47.87
62011;BME280;47967;51.756;10.174;2023-07-02T10:17:03;99054.25;;;22.41;47.96
62011;BME280;47967;51.756;10.174;2023-07-02T10:21:16;99049.06;;;22.73;47.02
62011;BME280;47967;51.756;10.174;2023-07-02T10:25:26;99055.28;;;22.64;47.08
62011;BME280;47967;51.756;10.174;2023-07-02T10:29:29;99062.75;;;23.30;45.24
62011;BME280;47967;51.756;10.174;2023-07-02T10:33:33;99053.34;;;24.06;44.88
62011;BME280;47967;51.756;10.174;2023-07-02T10:37:36;99039.00;;;24.82;43.96
62011;BME280;47967;51.756;10.174;2023-07-02T10:41:39;99048.25;;;24.50;43.46
62011;BME280;47967;51.756;10.174;2023-07-02T10:45:42;99052.63;;;22.92;43.78
62011;BME280;47967;51.756;10.174;2023-07-02T10:49:46;99066.84;;;23.32;43.60
62011;BME280;47967;51.756;10.174;2023-07-02T10:53:58;99066.88;;;23.13;42.40
62011;BME280;47967;51.756;10.174;2023-07-02T10:58:05;99075.59;;;22.82;43.43
62011;BME280;47967;51.756;10.174;2023-07-02T11:02:08;99081.19;;;22.77;44.87
62011;BME280;47967;51.756;10.174;2023-07-02T11:06:13;99079.66;;;23.04;43.58
62011;BME280;47967;51.756;10.174;2023-07-02T11:10:19;99080.97;;;23.45;42.64
62011;BME280;47967;51.756;10.174;2023-07-02T11:14:29;99072.81;;;23.67;43.56
62011;BME280;47967;51.756;10.174;2023-07-02T11:18:32;99056.97;;;24.43;42.06
62011;BME280;47967;51.756;10.174;2023-07-02T11:22:37;99073.78;;;24.92;40.78
62011;BME280;47967;51.756;10.174;2023-07-02T11:26:40;99080.19;;;24.28;41.16
62011;BME280;47967;51.756;10.174;2023-07-02T11:30:45;99082.72;;;23.82;42.03
62011;BME280;47967;51.756;10.174;2023-07-02T11:34:53;99067.81;;;24.39;42.06
62011;BME280;47967;51.756;10.174;2023-07-02T11:38:57;99075.44;;;24.93;40.22
62011;BME280;47967;51.756;10.174;2023-07-02T11:42:59;99082.00;;;24.33;40.05
62011;BME280;47967;51.756;10.174;2023-07-02T11:47:02;99087.44;;;24.10;40.52
62011;BME280;47967;51.756;10.174;2023-07-02T11:51:06;99088.16;;;24.29;40.45
62011;BME280;47967;51.756;10.174;2023-07-02T11:55:11;99089.84;;;24.39;40.57
62011;BME280;47967;51.756;10.174;2023-07-02T11:59:13;99087.50;;;24.46;40.98
62011;BME280;47967;51.756;10.174;2023-07-02T12:03:16;99096.13;;;24.17;40.12
62011;BME280;47967;51.756;10.174;2023-07-02T12:07:18;99093.94;;;24.42;39.14
62011;BME280;47967;51.756;10.174;2023-07-02T12:11:22;99101.34;;;24.05;39.32
62011;BME280;47967;51.756;10.174;2023-07-02T12:15:25;99110.78;;;23.71;40.12
62011;BME280;47967;51.756;10.174;2023-07-02T12:19:28;99101.13;;;24.01;39.44
62011;BME280;47967;51.756;10.174;2023-07-02T12:23:30;99103.66;;;24.11;39.97
62011;BME280;47967;51.756;10.174;2023-07-02T12:27:34;99102.03;;;24.10;39.71
62011;BME280;47967;51.756;10.174;2023-07-02T12:31:37;99101.53;;;24.73;38.79
62011;BME280;47967;51.756;10.174;2023-07-02T12:35:39;99091.91;;;24.48;39.58
62011;BME280;47967;51.756;10.174;2023-07-02T12:39:42;99104.81;;;24.75;38.62
62011;BME280;47967;51.756;10.174;2023-07-02T12:43:46;99116.59;;;24.39;37.75
62011;BME280;47967;51.756;10.174;2023-07-02T12:47:49;99118.03;;;23.80;39.27
62011;BME280;47967;51.756;10.174;2023-07-02T12:51:51;99116.22;;;24.18;38.36
62011;BME280;47967;51.756;10.174;2023-07-02T12:55:54;99116.94;;;24.09;39.24
62011;BME280;47967;51.756;10.174;2023-07-02T12:59:58;99107.44;;;24.02;39.36
62011;BME280;47967;51.756;10.174;2023-07-02T13:04:00;99115.00;;;24.38;39.09
62011;BME280;47967;51.756;10.174;2023-07-02T13:08:05;99112.59;;;24.59;38.33
62011;BME280;47967;51.756;10.174;2023-07-02T13:12:09;99120.28;;;24.48;37.94
62011;BME280;47967;51.756;10.174;2023-07-02T13:16:13;99142.72;;;24.69;38.15
62011;BME280;47967;51.756;10.174;2023-07-02T13:20:16;99132.22;;;23.88;38.35
62011;BME280;47967;51.756;10.174;2023-07-02T13:24:19;99127.84;;;24.01;39.18
62011;BME280;47967;51.756;10.174;2023-07-02T13:28:21;99119.78;;;24.32;39.04
62011;BME280;47967;51.756;10.174;2023-07-02T13:32:26;99113.19;;;24.56;38.17
62011;BME280;47967;51.756;10.174;2023-07-02T13:36:32;99116.41;;;25.22;37.26
62011;BME280;47967;51.756;10.174;2023-07-02T13:40:34;99122.34;;;25.16;37.31
62011;BME280;47967;51.756;10.174;2023-07-02T13:44:37;99135.00;;;24.16;37.58
62011;BME280;47967;51.756;10.174;2023-07-02T13:48:42;99122.69;;;24.77;37.42
62011;BME280;47967;51.756;10.174;2023-07-02T13:52:45;99117.28;;;25.54;36.80
62011;BME280;47967;51.756;10.174;2023-07-02T13:56:47;99117.84;;;26.05;35.93
62011;BME280;47967;51.756;10.174;2023-07-02T14:00:52;99117.13;;;26.31;35.57
62011;BME280;47967;51.756;10.174;2023-07-02T14:04:55;99116.00;;;26.50;35.02
62011;BME280;47967;51.756;10.174;2023-07-02T14:09:01;99117.09;;;26.14;35.93
62011;BME280;47967;51.756;10.174;2023-07-02T14:13:04;99109.31;;;26.33;35.77
62011;BME280;47967;51.756;10.174;2023-07-02T14:17:08;99121.13;;;26.08;36.04
62011;BME280;47967;51.756;10.174;2023-07-02T14:21:10;99118.06;;;24.22;37.52
62011;BME280;47967;51.756;10.174;2023-07-02T14:25:13;99124.81;;;25.17;37.57
62011;BME280;47967;51.756;10.174;2023-07-02T14:29:32;99123.41;;;25.29;36.16
62011;BME280;47967;51.756;10.174;2023-07-02T14:33:37;99123.75;;;25.27;35.75
62011;BME280;47967;51.756;10.174;2023-07-02T14:37:40;99127.19;;;25.55;36.22
62011;BME280;47967;51.756;10.174;2023-07-02T14:41:42;99123.31;;;26.37;35.07
62011;BME280;47967;51.756;10.174;2023-07-02T14:45:49;99136.22;;;26.59;35.52
62011;BME280;47967;51.756;10.174;2023-07-02T14:49:53;99125.19;;;25.47;36.39
62011;BME280;47967;51.756;10.174;2023-07-02T14:53:56;99129.22;;;25.72;36.75
62011;BME280;47967;51.756;10.174;2023-07-02T14:57:58;99133.50;;;25.10;37.78
62011;BME280;47967;51.756;10.174;2023-07-02T15:02:01;99134.22;;;25.16;37.71
62011;BME280;47967;51.756;10.174;2023-07-02T15:06:11;99133.47;;;25.47;38.26
62011;BME280;47967;51.756;10.174;2023-07-02T15:10:14;99126.84;;;26.11;37.31
62011;BME280;47967;51.756;10.174;2023-07-02T15:14:16;99134.22;;;26.42;36.57
62011;BME280;47967;51.756;10.174;2023-07-02T15:18:19;99130.41;;;26.12;36.91
62011;BME280;47967;51.756;10.174;2023-07-02T15:22:23;99128.88;;;26.05;36.82
62011;BME280;47967;51.756;10.174;2023-07-02T15:26:26;99130.59;;;25.52;37.77
62011;BME280;47967;51.756;10.174;2023-07-02T15:30:28;99125.59;;;25.63;37.92
62011;BME280;47967;51.756;10.174;2023-07-02T15:34:31;99125.31;;;25.65;36.93
62011;BME280;47967;51.756;10.174;2023-07-02T15:38:35;99123.25;;;26.11;37.10
62011;BME280;47967;51.756;10.174;2023-07-02T15:42:38;99125.91;;;25.93;37.81
62011;BME280;47967;51.756;10.174;2023-07-02T15:46:40;99122.75;;;25.77;36.68
62011;BME280;47967;51.756;10.174;2023-07-02T15:50:43;99121.38;;;26.37;36.97
62011;BME280;47967;51.756;10.174;2023-07-02T15:54:47;99125.16;;;26.59;35.73
62011;BME280;47967;51.756;10.174;2023-07-02T15:58:49;99120.94;;;25.72;35.96
62011;BME280;47967;51.756;10.174;2023-07-02T16:02:52;99129.16;;;25.55;36.86
62011;BME280;47967;51.756;10.174;2023-07-02T16:06:55;99136.94;;;25.53;37.39
62011;BME280;47967;51.756;10.174;2023-07-02T16:10:59;99156.16;;;26.21;36.03
62011;BME280;47967;51.756;10.174;2023-07-02T16:15:01;99141.53;;;25.89;36.35
62011;BME280;47967;51.756;10.174;2023-07-02T16:19:07;99136.06;;;26.56;36.90
62011;BME280;47967;51.756;10.174;2023-07-02T16:23:10;99132.94;;;27.71;34.20
62011;BME280;47967;51.756;10.174;2023-07-02T16:27:14;99146.19;;;28.04;33.12
62011;BME280;47967;51.756;10.174;2023-07-02T16:31:17;99150.56;;;25.49;35.26
62011;BME280;47967;51.756;10.174;2023-07-02T16:35:21;99139.22;;;25.91;36.21
62011;BME280;47967;51.756;10.174;2023-07-02T16:39:24;99143.66;;;26.41;35.16
62011;BME280;47967;51.756;10.174;2023-07-02T16:43:30;99140.63;;;26.69;34.84
62011;BME280;47967;51.756;10.174;2023-07-02T16:47:33;99137.91;;;27.13;33.83
62011;BME280;47967;51.756;10.174;2023-07-02T16:51:36;99148.97;;;27.22;33.67
62011;BME280;47967;51.756;10.174;2023-07-02T16:55:41;99145.38;;;27.39;34.18
62011;BME280;47967;51.756;10.174;2023-07-02T16:59:46;99138.84;;;27.52;33.19
62011;BME280;47967;51.756;10.174;2023-07-02T17:03:48;99149.28;;;27.64;32.59
62011;BME280;47967;51.756;10.174;2023-07-02T17:07:51;99143.09;;;27.58;32.06
62011;BME280;47967;51.756;10.174;2023-07-02T17:11:54;99149.91;;;27.61;31.91
62011;BME280;47967;51.756;10.174;2023-07-02T17:15:58;99139.84;;;27.04;32.48
62011;BME280;47967;51.756;10.174;2023-07-02T17:20:01;99145.81;;;26.53;33.33
62011;BME280;47967;51.756;10.174;2023-07-02T17:24:04;99139.25;;;26.31;34.63
62011;BME280;47967;51.756;10.174;2023-07-02T17:28:07;99144.44;;;26.82;32.30
62011;BME280;47967;51.756;10.174;2023-07-02T17:32:11;99147.97;;;27.61;31.18
62011;BME280;47967;51.756;10.174;2023-07-02T17:36:16;99139.31;;;26.66;32.24
62011;BME280;47967;51.756;10.174;2023-07-02T17:40:19;99135.47;;;25.87;34.47
62011;BME280;47967;51.756;10.174;2023-07-02T17:44:23;99134.84;;;25.36;35.50
62011;BME280;47967;51.756;10.174;2023-07-02T17:48:28;99131.59;;;25.88;35.05
62011;BME280;47967;51.756;10.174;2023-07-02T17:52:30;99131.25;;;26.21;34.15
62011;BME280;47967;51.756;10.174;2023-07-02T17:56:34;99137.19;;;26.05;34.34
62011;BME280;47967;51.756;10.174;2023-07-02T18:00:36;99134.38;;;25.97;35.79
62011;BME280;47967;51.756;10.174;2023-07-02T18:04:40;99139.06;;;25.87;34.94
62011;BME280;47967;51.756;10.174;2023-07-02T18:08:43;99125.50;;;25.46;36.18
62011;BME280;47967;51.756;10.174;2023-07-02T18:12:46;99135.63;;;25.36;37.31
62011;BME280;47967;51.756;10.174;2023-07-02T18:16:49;99133.00;;;25.31;36.61
62011;BME280;47967;51.756;10.174;2023-07-02T18:20:53;99135.94;;;26.12;35.59
62011;BME280;47967;51.756;10.174;2023-07-02T18:24:55;99133.28;;;26.56;34.63
62011;BME280;47967;51.756;10.174;2023-07-02T18:28:59;99147.88;;;25.98;36.00
62011;BME280;47967;51.756;10.174;2023-07-02T18:33:03;99139.94;;;25.20;37.06
62011;BME280;47967;51.756;10.174;2023-07-02T18:37:07;99146.81;;;24.58;38.29
62011;BME280;47967;51.756;10.174;2023-07-02T18:41:11;99143.88;;;23.98;39.69
62011;BME280;47967;51.756;10.174;2023-07-02T18:45:14;99149.72;;;23.64;40.60
62011;BME280;47967;51.756;10.174;2023-07-02T18:49:17;99150.25;;;23.33;41.70
62011;BME280;47967;51.756;10.174;2023-07-02T18:53:22;99149.41;;;22.75;42.81
62011;BME280;47967;51.756;10.174;2023-07-02T18:57:25;99150.44;;;22.36;44.31
62011;BME280;47967;51.756;10.174;2023-07-02T19:01:28;99148.25;;;22.14;45.44
62011;BME280;47967;51.756;10.174;2023-07-02T19:05:31;99150.66;;;21.96;46.90
62011;BME280;47967;51.756;10.174;2023-07-02T19:09:35;99148.19;;;21.65;47.66
62011;BME280;47967;51.756;10.174;2023-07-02T19:13:38;99151.47;;;21.33;48.43
62011;BME280;47967;51.756;10.174;2023-07-02T19:17:41;99148.88;;;21.12;48.26
62011;BME280;47967;51.756;10.174;2023-07-02T19:21:45;99153.28;;;21.13;49.55
62011;BME280;47967;51.756;10.174;2023-07-02T19:25:52;99150.88;;;21.01;50.49
62011;BME280;47967;51.756;10.174;2023-07-02T19:29:54;99155.81;;;20.99;51.07
62011;BME280;47967;51.756;10.174;2023-07-02T19:33:58;99160.88;;;20.82;51.06
62011;BME280;47967;51.756;10.174;2023-07-02T19:38:01;99152.16;;;20.69;52.35
62011;BME280;47967;51.756;10.174;2023-07-02T19:42:05;99148.34;;;20.60;53.41
62011;BME280;47967;51.756;10.174;2023-07-02T19:46:08;99153.91;;;20.50;53.22
62011;BME280;47967;51.756;10.174;2023-07-02T19:50:11;99154.75;;;20.35;53.76
62011;BME280;47967;51.756;10.174;2023-07-02T19:54:15;99160.31;;;20.19;55.10
62011;BME280;47967;51.756;10.174;2023-07-02T19:58:19;99164.19;;;20.03;55.46
62011;BME280;47967;51.756;10.174;2023-07-02T20:02:22;99166.94;;;19.87;56.01
62011;BME280;47967;51.756;10.174;2023-07-02T20:06:24;99171.88;;;19.54;55.88
62011;BME280;47967;51.756;10.174;2023-07-02T20:10:27;99176.00;;;19.36;56.72
62011;BME280;47967;51.756;10.174;2023-07-02T20:14:31;99169.13;;;19.28;56.92
62011;BME280;47967;51.756;10.174;2023-07-02T20:18:35;99172.97;;;19.43;57.51
62011;BME280;47967;51.756;10.174;2023-07-02T20:22:38;99177.91;;;19.30;58.80
62011;BME280;47967;51.756;10.174;2023-07-02T20:26:42;99178.44;;;19.17;59.25
62011;BME280;47967;51.756;10.174;2023-07-02T20:30:46;99182.53;;;19.09;59.46
62011;BME280;47967;51.756;10.174;2023-07-02T20:34:49;99171.25;;;18.90;61.14
62011;BME280;47967;51.756;10.174;2023-07-02T20:38:52;99170.69;;;18.78;60.62
62011;BME280;47967;51.756;10.174;2023-07-02T20:42:54;99179.09;;;18.55;61.51
62011;BME280;47967;51.756;10.174;2023-07-02T20:46:59;99176.00;;;18.36;61.50
62011;BME280;47967;51.756;10.174;2023-07-02T20:51:02;99178.75;;;18.42;62.25
62011;BME280;47967;51.756;10.174;2023-07-02T20:55:05;99175.75;;;18.43;63.26
62011;BME280;47967;51.756;10.174;2023-07-02T20:59:09;99179.50;;;18.27;62.14
